Time;durP1;ratioP1;P1;durP2;ratioP2;P2;SDS_P1;SDS_P2;PMS_P1;PMS_P2;Temp;Humidity;BMP_temperature;BMP_pressure;BME280_temperature;BME280_humidity;BME280_pressure;Samples;Min_cycle;Max_cycle;Signal;HPM_P1;HPM_P2
2021/05/13 00:07:47;;;;;;;19.52;16.05;;;;;;;15.37;81.65;93024.47;4919404;28;20095;-90
2021/05/13 00:11:05;;;;;;;16.48;14.60;;;;;;;15.69;81.14;93068.78;4898389;23;20084;-89
2021/05/13 00:17:33;;;;;;;17.05;14.02;;;;;;;15.38;81.33;93034.00;4840809;29;20263;-90
2021/05/13 00:19:59;;;;;;;20.13;14.15;;;;;;;15.34;81.14;93043.78;4841475;29;20489;-90
2021/05/13 00:22:27;;;;;;;22.00;17.23;;;;;;;15.22;81.09;93030.50;4911455;29;20046;-90
2021/05/13 00:24:52;;;;;;;21.73;16.58;;;;;;;15.43;80.28;93044.44;4904236;29;20071;-90
2021/05/13 00:27:18;;;;;;;24.52;18.25;;;;;;;15.46;80.49;93059.72;4902802;29;20134;-89
2021/05/13 00:29:43;;;;;;;27.90;19.20;;;;;;;15.24;80.52;93023.72;4906706;29;20099;-89
2021/05/13 00:32:09;;;;;;;47.75;20.77;;;;;;;15.41;79.57;93028.78;4924354;29;20024;-91
2021/05/13 00:34:34;;;;;;;28.45;20.05;;;;;;;15.54;79.79;93050.88;4901108;29;20477;-90
2021/05/13 00:37:00;;;;;;;38.83;23.70;;;;;;;15.59;79.99;93074.59;4906415;29;20051;-90
2021/05/13 00:39:57;;;;;;;;;;;;;;;;;;;;;
2021/05/13 00:42:26;;;;;;;38.25;25.42;;;;;;;15.27;80.44;93035.59;4915547;29;20095;-89
2021/05/13 00:44:53;;;;;;;58.33;29.10;;;;;;;15.19;80.78;93021.31;4905979;29;20412;-92
2021/05/13 00:47:23;;;;;;;81.68;39.50;;;;;;;15.29;80.56;93047.47;4914598;29;20027;-90
2021/05/13 00:49:49;;;;;;;46.65;28.15;;;;;;;15.40;80.78;93061.84;4923902;29;20024;-91
2021/05/13 00:52:21;;;;;;;31.83;23.33;;;;;;;15.27;81.32;93049.66;4908162;29;20134;-90
2021/05/13 00:54:47;;;;;;;31.92;25.58;;;;;;;15.38;81.46;93071.28;4921304;29;20047;-88
2021/05/13 00:57:13;;;;;;;37.70;26.45;;;;;;;15.43;81.18;93071.06;4900109;29;20055;-88
2021/05/13 00:59:42;;;;;;;33.60;25.20;;;;;;;15.41;79.84;93051.97;4918945;29;20047;-89
2021/05/13 01:02:10;;;;;;;35.13;26.42;;;;;;;15.24;79.96;93028.28;4924535;29;20031;-88
2021/05/13 01:04:36;;;;;;;33.85;25.60;;;;;;;15.26;80.81;93045.44;4921551;29;20036;-88
2021/05/13 01:07:02;;;;;;;36.17;24.27;;;;;;;15.40;80.55;93061.84;4905296;29;20050;-89
2021/05/13 01:09:29;;;;;;;34.45;25.27;;;;;;;15.33;80.98;93043.00;4924967;29;20036;-89
2021/05/13 01:12:13;;;;;;;;;;;;;;;;;;;;;
2021/05/13 01:14:44;;;;;;;39.72;28.08;;;;;;;15.35;80.79;93046.09;4851605;29;20083;-88
2021/05/13 01:19:41;;;;;;;37.75;29.73;;;;;;;15.47;80.06;93058.63;4921196;29;20106;-88
2021/05/13 01:22:11;;;;;;;38.13;29.10;;;;;;;15.01;80.29;93018.09;4917152;29;20501;-89
2021/05/13 01:28:33;;;;;;;40.83;27.48;;;;;;;14.93;80.92;93018.22;4752251;29;20405;-88
2021/05/13 01:30:58;;;;;;;38.17;28.00;;;;;;;15.27;80.79;93060.31;4919825;29;20044;-87
2021/05/13 01:33:46;;;;;;;39.90;28.88;;;;;;;14.95;81.08;93013.34;4830203;28;20544;-88
2021/05/13 01:36:53;;;;;;;37.33;28.13;;;;;;;15.18;80.76;93057.78;4820490;29;20263;-89
2021/05/13 01:39:50;;;;;;;43.13;29.23;;;;;;;15.15;80.69;93058.44;4830417;29;20490;-91
2021/05/13 01:43:23;;;;;;;;;;;;;;;;;;;;;
2021/05/13 01:46:51;;;;;;;;;;;;;;;;;;;;;
2021/05/13 01:50:33;;;;;;;34.30;23.20;;;;;;;14.76;80.23;93011.22;4781389;29;20042;-89
2021/05/13 01:53:02;;;;;;;34.05;24.08;;;;;;;14.75;80.78;93025.66;4676261;30;20049;-89
2021/05/13 01:59:10;;;;;;;34.95;24.15;;;;;;;14.80;80.76;93025.44;4682451;29;20045;-90
2021/05/13 02:01:36;;;;;;;37.17;24.85;;;;;;;14.91;81.09;93055.78;4749863;29;20047;-90
2021/05/13 02:04:58;;;;;;;;;;;;;;;;;;;;;
2021/05/13 02:07:24;;;;;;;31.73;25.05;;;;;;;14.97;80.30;93030.50;4683271;30;20454;-89
2021/05/13 02:09:49;;;;;;;36.78;23.48;;;;;;;14.72;80.17;93005.03;4820259;29;20692;-90
2021/05/13 02:13:17;;;;;;;34.30;23.63;;;;;;;15.05;80.36;93052.81;4921918;29;20035;-89
2021/05/13 02:15:45;;;;;;;35.03;25.88;;;;;;;14.80;80.41;93022.78;4919292;29;20071;-90
2021/05/13 02:18:54;;;;;;;35.25;27.08;;;;;;;14.91;81.05;93045.16;4838098;29;20057;-90
2021/05/13 02:29:01;;;;;;;;;;;;;;;;;;;;;
2021/05/13 02:32:31;;;;;;;;;;;;;;;;;;;;;
2021/05/13 02:39:33;;;;;;;38.65;25.80;;;;;;;14.46;81.72;93005.38;4716353;29;20135;-88
2021/05/13 02:43:04;;;;;;;34.60;25.85;;;;;;;14.49;81.56;92998.59;4738573;29;20104;-89
2021/05/13 02:49:23;;;;;;;34.72;25.20;;;;;;;14.76;81.43;93027.19;4675922;30;20146;-89
2021/05/13 02:52:32;;;;;;;39.97;26.55;;;;;;;14.70;81.57;93015.25;4661500;30;20041;-88
2021/05/13 02:54:57;;;;;;;63.50;35.60;;;;;;;14.72;80.98;93002.38;4701248;30;20194;-89
2021/05/13 02:58:22;;;;;;;43.90;27.35;;;;;;;14.77;79.90;93002.16;4867982;23;20026;-89
2021/05/13 03:01:31;;;;;;;42.13;27.23;;;;;;;14.94;80.57;93047.16;4773364;29;20231;-88
2021/05/13 03:08:09;;;;;;;35.42;24.90;;;;;;;14.89;80.54;93042.06;4738168;29;20065;-89
2021/05/13 03:14:46;;;;;;;;;;;;;;;;;;;;;
2021/05/13 03:25:07;;;;;;;32.38;21.77;;;;;;;14.83;80.99;93051.34;4676528;30;20048;-88
2021/05/13 03:27:54;;;;;;;29.48;21.50;;;;;;;14.70;80.76;93015.25;4749986;30;20044;-89
2021/05/13 03:31:20;;;;;;;;;;;;;;;;;;;;;
2021/05/13 03:37:56;;;;;;;28.30;20.08;;;;;;;14.78;80.11;93014.34;4727476;30;20292;-89
2021/05/13 03:41:12;;;;;;;;;;;;;;;;;;;;;
2021/05/13 03:44:06;;;;;;;34.75;22.58;;;;;;;14.67;79.33;92994.63;4738821;29;20057;-90
2021/05/13 03:46:49;;;;;;;;;;;;;;;;;;;;;
2021/05/13 03:49:31;;;;;;;28.63;20.83;;;;;;;14.67;79.97;93002.59;4807867;29;20054;-89
2021/05/13 03:53:04;;;;;;;;;;;;;;;;;;;;;
2021/05/13 03:59:23;;;;;;;31.30;21.58;;;;;;;15.07;79.99;93055.91;4688986;30;20897;-89
2021/05/13 04:05:32;;;;;;;37.05;22.33;;;;;;;15.13;80.00;93034.06;4765181;29;20050;-89
2021/05/13 04:10:43;;;;;;;;;;;;;;;15.37;77.96;93048.44;4643640;27;20140;-89
2021/05/13 04:19:15;;;;;;;;;;;;;;;15.38;75.71;93055.31;4933976;23;20082;-88
2021/05/13 04:21:40;;;;;;;30.30;22.58;;;;;;;15.06;76.37;93006.44;4921144;29;19923;-88
2021/05/13 04:24:43;;;;;;;;;;;;;;;;;;;;;
2021/05/13 04:27:08;;;;;;;30.40;23.38;;;;;;;15.30;76.14;92990.44;4824575;29;20151;-88
2021/05/13 04:33:17;;;;;;;;;;;;;;;;;;;;;
2021/05/13 04:35:42;;;;;;;28.33;22.95;;;;;;;16.02;73.00;93017.97;4909446;29;20044;-88
2021/05/13 04:38:09;;;;;;;30.75;21.83;;;;;;;16.69;71.52;93043.69;4909923;29;20027;-89
2021/05/13 04:40:34;;;;;;;26.73;21.55;;;;;;;16.38;71.34;93006.28;4903830;29;20050;-89
2021/05/13 05:09:55;;;;;;;20.33;17.30;;;;;;;19.59;57.20;92999.53;4945354;23;20070;-88
2021/05/13 05:12:21;;;;;;;20.88;17.60;;;;;;;19.74;56.74;93031.50;4939516;28;20106;-87
2021/05/13 05:14:46;;;;;;;20.77;18.40;;;;;;;19.92;57.05;93036.31;4923379;28;20465;-87
2021/05/13 05:17:12;;;;;;;21.27;18.08;;;;;;;20.22;56.44;93013.69;4944655;28;20019;-88
2021/05/13 05:19:37;;;;;;;19.08;16.83;;;;;;;19.97;54.81;93031.41;4938968;28;21128;-88
2021/05/13 05:22:06;;;;;;;22.42;18.40;;;;;;;19.99;54.66;93036.44;4900817;29;20543;-88
2021/05/13 05:24:33;;;;;;;21.90;19.15;;;;;;;19.44;55.95;93015.44;4894173;28;20302;-86
2021/05/13 05:27:02;;;;;;;21.73;19.30;;;;;;;19.69;55.97;92998.91;4915957;29;20043;-88
2021/05/13 05:29:28;;;;;;;24.48;18.98;;;;;;;20.21;53.95;93019.44;4936145;28;20068;-89
2021/05/13 05:31:54;;;;;;;22.27;18.23;;;;;;;20.73;53.04;93011.16;4942711;29;20847;-88
2021/05/13 05:34:19;;;;;;;22.58;18.85;;;;;;;20.64;52.65;93016.06;4898386;28;20480;-88
2021/05/13 05:36:44;;;;;;;23.92;18.48;;;;;;;20.24;53.51;93000.69;4939039;28;20078;-88
2021/05/13 05:39:10;;;;;;;21.08;18.80;;;;;;;20.16;53.98;93039.31;4940447;29;20037;-89
2021/05/13 05:41:35;;;;;;;23.10;20.17;;;;;;;19.93;54.63;93019.09;4913739;28;26193;-88
2021/05/13 05:44:01;;;;;;;22.65;19.80;;;;;;;19.69;56.20;93015.75;4923886;29;20023;-89
2021/05/13 05:46:26;;;;;;;22.08;19.30;;;;;;;20.37;54.52;93011.19;4939478;28;20035;-89
2021/05/13 05:49:09;;;;;;;23.20;18.15;;;;;;;21.17;52.44;93043.38;4920358;28;20397;-89
2021/05/13 05:51:55;;;;;;;26.80;18.98;;;;;;;21.55;50.34;93014.47;4939940;28;20035;-89
2021/05/13 05:54:47;;;;;;;20.58;17.77;;;;;;;22.13;49.62;93049.38;4884436;28;20529;-90
2021/05/13 05:57:12;;;;;;;21.42;17.35;;;;;;;21.55;49.55;93009.09;4925298;28;20090;-88
2021/05/13 05:59:37;;;;;;;23.98;17.42;;;;;;;22.06;49.01;93003.59;4936229;29;20052;-89
2021/05/13 06:02:03;;;;;;;24.67;17.55;;;;;;;23.14;47.85;93014.16;4942420;29;20451;-89
2021/05/13 06:04:28;;;;;;;18.90;15.27;;;;;;;24.43;44.94;93043.97;4938450;28;20412;-90
2021/05/13 06:06:54;;;;;;;19.05;15.68;;;;;;;25.86;41.40;93034.41;4939326;29;20035;-88
2021/05/13 06:09:19;;;;;;;21.08;15.30;;;;;;;26.71;38.35;93016.41;4939720;28;20045;-89
2021/05/13 06:11:45;;;;;;;17.65;13.15;;;;;;;27.74;35.74;93010.16;4940332;29;20331;-89
2021/05/13 06:14:13;;;;;;;15.63;13.00;;;;;;;28.77;34.55;93032.63;4922988;28;20046;-94
2021/05/13 06:16:38;;;;;;;16.80;13.40;;;;;;;29.97;32.88;93018.09;4852803;28;20051;-91
2021/05/13 06:19:04;;;;;;;15.07;13.48;;;;;;;30.61;31.30;92987.13;4922849;29;20039;-90
2021/05/13 06:21:29;;;;;;;17.35;13.80;;;;;;;30.64;31.25;93002.63;4937294;28;20039;-89
2021/05/13 06:24:11;;;;;;;;;;;;;;;;;;;;;
2021/05/13 06:27:28;;;;;;;13.25;11.88;;;;;;;32.16;29.37;92980.59;4922244;28;20062;-91
2021/05/13 06:29:53;;;;;;;18.27;12.65;;;;;;;32.10;29.19;92991.34;4858239;29;20765;-90
2021/05/13 06:32:19;;;;;;;16.20;12.75;;;;;;;32.48;28.17;92985.69;4871113;29;20076;-90
2021/05/13 06:34:44;;;;;;;13.90;12.50;;;;;;;32.71;27.62;93013.78;4902200;28;20035;-91
2021/05/13 06:37:10;;;;;;;14.88;12.55;;;;;;;32.39;28.66;93007.50;4936820;28;20081;-91
2021/05/13 06:39:36;;;;;;;13.90;12.35;;;;;;;31.91;28.72;93008.78;4934787;29;20514;-92
2021/05/13 06:45:26;;;;;;;15.60;12.52;;;;;;;31.70;29.72;93021.19;4862397;29;20039;-91
2021/05/13 06:52:03;;;;;;;;;;;;;;;31.62;30.69;93028.06;4876458;29;20187;-90
2021/05/13 06:54:45;;;;;;;21.77;19.50;;;;;;;31.28;30.59;92997.94;4900114;29;19923;-90
2021/05/13 06:57:48;;;;;;;;;;;;;;;;;;;;;
2021/05/13 07:00:26;;;;;;;19.33;17.40;;;;;;;32.67;30.03;93027.59;4787120;29;20171;-92
2021/05/13 07:02:54;;;;;;;30.17;27.10;;;;;;;33.09;28.85;93000.59;4823399;29;20138;-89
2021/05/13 07:05:23;;;;;;;28.65;25.90;;;;;;;33.31;27.74;93012.25;4871962;29;20561;-88
2021/05/13 07:07:48;;;;;;;28.95;24.10;;;;;;;33.53;27.54;93004.69;4899876;29;20043;-91
2021/05/13 07:10:14;;;;;;;19.58;17.23;;;;;;;33.18;27.17;93002.63;4904807;29;20067;-92
2021/05/13 07:12:39;;;;;;;21.77;17.67;;;;;;;33.41;27.82;93010.31;4916273;29;20191;-89
2021/05/13 07:15:49;;;;;;;18.73;16.83;;;;;;;32.24;28.40;92976.41;4860922;29;20275;-90
2021/05/13 07:19:11;;;;;;;22.15;18.13;;;;;;;32.86;28.62;92999.13;4910327;29;20036;-91
2021/05/13 07:21:45;;;;;;;18.88;16.85;;;;;;;33.53;27.14;93001.97;4916515;29;20134;-90
2021/05/13 07:24:11;;;;;;;19.67;17.58;;;;;;;34.05;26.96;93002.22;4915749;29;20079;-92
2021/05/13 07:26:39;;;;;;;19.80;17.77;;;;;;;34.29;25.62;92978.47;4901557;29;20179;-96
2021/05/13 07:29:05;;;;;;;22.33;17.23;;;;;;;34.52;26.59;93008.00;4917759;29;20032;-91
2021/05/13 07:31:30;;;;;;;22.05;17.20;;;;;;;34.69;25.79;92967.28;4892018;29;20062;-93
2021/05/13 07:33:58;;;;;;;18.90;15.93;;;;;;;35.21;24.81;92979.78;4918614;28;20044;-94
2021/05/13 07:36:24;;;;;;;19.80;17.90;;;;;;;35.92;24.17;92981.84;4914964;29;20044;-85
2021/05/13 07:38:49;;;;;;;19.55;17.60;;;;;;;36.22;24.31;92996.41;4914748;28;20047;-85
2021/05/13 07:41:16;;;;;;;21.67;16.73;;;;;;;36.44;24.31;92996.84;4901216;29;20054;-86
2021/05/13 07:43:43;;;;;;;18.85;15.63;;;;;;;36.63;23.26;93000.97;4900235;29;20047;-87
2021/05/13 07:46:09;;;;;;;23.17;17.85;;;;;;;36.68;23.33;93007.81;4897570;29;20122;-86
2021/05/13 07:48:35;;;;;;;22.83;17.52;;;;;;;36.10;24.06;93000.16;4914495;28;20043;-85
2021/05/13 07:51:01;;;;;;;23.58;21.10;;;;;;;35.89;24.15;93004.75;4915720;29;20107;-87
2021/05/13 07:53:27;;;;;;;21.15;18.95;;;;;;;35.67;25.12;92993.31;4914930;28;20028;-85
2021/05/13 07:55:53;;;;;;;20.75;18.35;;;;;;;36.52;23.67;92988.97;4919572;29;20030;-86
2021/05/13 07:58:19;;;;;;;22.48;20.02;;;;;;;36.80;24.22;92990.25;4915664;29;20054;-86
2021/05/13 08:00:47;;;;;;;23.48;20.35;;;;;;;37.08;23.20;92972.22;4916619;29;20048;-85
2021/05/13 08:03:15;;;;;;;25.27;19.67;;;;;;;38.18;22.32;92990.75;4913591;29;20044;-86
2021/05/13 08:05:41;;;;;;;20.65;17.67;;;;;;;38.26;21.72;92996.63;4901436;29;20144;-85
2021/05/13 08:08:06;;;;;;;20.75;18.50;;;;;;;37.89;21.66;92975.09;4904282;29;20039;-85
2021/05/13 08:10:33;;;;;;;21.90;19.55;;;;;;;35.71;24.03;92966.41;4912964;29;20064;-84
2021/05/13 08:13:01;;;;;;;26.77;20.38;;;;;;;35.70;23.69;92981.34;4912116;29;20047;-85
2021/05/13 08:15:27;;;;;;;22.85;20.70;;;;;;;34.39;25.22;92966.25;4915183;29;20195;-85
2021/05/13 08:17:52;;;;;;;22.25;19.88;;;;;;;33.80;26.05;92998.53;4916696;28;20048;-83
2021/05/13 08:20:18;;;;;;;24.88;20.42;;;;;;;34.11;26.31;92984.69;4899380;29;20038;-84
2021/05/13 08:22:48;;;;;;;24.00;21.20;;;;;;;34.13;26.12;92992.47;4902220;29;20024;-87
2021/05/13 08:25:18;;;;;;;23.90;20.00;;;;;;;34.76;25.98;92989.66;4912376;28;20519;-85
2021/05/13 08:27:44;;;;;;;26.65;20.85;;;;;;;35.37;24.87;92971.16;4897689;29;20342;-86
2021/05/13 08:30:10;;;;;;;24.83;18.98;;;;;;;36.69;23.57;92970.78;4914886;29;20048;-83
2021/05/13 08:32:36;;;;;;;21.25;19.13;;;;;;;36.66;23.67;92966.97;4913943;29;20378;-87
2021/05/13 08:35:02;;;;;;;20.20;16.55;;;;;;;36.64;23.24;92952.19;4917463;29;20118;-86
2021/05/13 08:37:28;;;;;;;18.67;16.63;;;;;;;37.17;22.29;92954.81;4914374;29;20281;-86
2021/05/13 08:39:54;;;;;;;18.15;16.35;;;;;;;37.96;21.57;92952.63;4913784;29;20051;-88
2021/05/13 08:42:19;;;;;;;16.63;14.98;;;;;;;38.02;21.40;92945.19;4911160;29;20413;-87
2021/05/13 08:44:45;;;;;;;20.45;18.33;;;;;;;37.36;21.49;92960.84;4914818;28;20121;-86
2021/05/13 08:47:11;;;;;;;22.25;15.93;;;;;;;36.88;22.86;92963.84;4898680;29;20031;-85
2021/05/13 08:49:38;;;;;;;17.73;14.95;;;;;;;36.90;22.38;92953.09;4906371;29;20687;-86
2021/05/13 08:52:12;;;;;;;16.77;14.75;;;;;;;35.76;22.80;92960.25;4916802;29;20055;-85
2021/05/13 08:54:53;;;;;;;17.05;15.38;;;;;;;35.01;23.88;92949.31;4917499;28;20051;-85
2021/05/13 08:57:19;;;;;;;19.10;16.02;;;;;;;34.94;24.31;92957.91;4917233;29;20058;-85
2021/05/13 08:59:45;;;;;;;18.27;15.63;;;;;;;35.92;23.15;92926.84;4918974;29;20058;-86
2021/05/13 09:02:11;;;;;;;19.80;16.35;;;;;;;36.64;23.17;92952.19;4917861;29;20027;-86
2021/05/13 09:04:39;;;;;;;18.55;16.02;;;;;;;36.40;21.89;92955.00;4902807;29;20039;-88
2021/05/13 09:07:15;;;;;;;20.38;15.10;;;;;;;35.98;23.31;92952.44;4917145;29;20054;-86
2021/05/13 09:10:04;;;;;;;17.25;14.65;;;;;;;36.23;22.11;92968.44;4917661;29;20047;-86
2021/05/13 09:12:34;;;;;;;20.95;15.73;;;;;;;36.21;22.94;92943.41;4917899;28;20039;-88
2021/05/13 09:15:01;;;;;;;22.02;17.00;;;;;;;35.36;23.25;92939.41;4917003;29;20047;-88
2021/05/13 09:17:28;;;;;;;16.67;13.18;;;;;;;34.65;23.16;92942.72;4899299;29;20125;-87
2021/05/13 09:19:55;;;;;;;18.60;14.18;;;;;;;34.23;24.35;92920.72;4921478;29;20031;-84
2021/05/13 09:22:24;;;;;;;18.27;12.75;;;;;;;34.01;24.61;92938.56;4916788;29;20515;-85
2021/05/13 09:25:07;;;;;;;13.73;12.38;;;;;;;34.16;25.38;92950.44;4920037;29;20036;-84
2021/05/13 09:27:45;;;;;;;14.38;12.07;;;;;;;33.45;23.48;92939.72;4914326;28;20417;-87
2021/05/13 09:30:20;;;;;;;13.10;11.45;;;;;;;32.86;24.98;92938.94;4900016;29;20505;-85
2021/05/13 09:32:51;;;;;;;16.60;12.40;;;;;;;32.29;25.35;92934.06;4916043;28;20043;-84
2021/05/13 09:35:16;;;;;;;15.13;12.45;;;;;;;31.89;26.18;92933.91;4914547;28;20361;-86
2021/05/13 09:37:48;;;;;;;17.02;13.25;;;;;;;31.13;27.54;92904.13;4916854;29;20110;-86
2021/05/13 09:40:19;;;;;;;22.00;16.38;;;;;;;31.33;28.53;92927.19;4882652;29;20119;-88
2021/05/13 09:42:44;;;;;;;19.67;16.05;;;;;;;30.33;30.13;92917.06;4915145;28;20047;-86
2021/05/13 09:45:10;;;;;;;23.13;18.90;;;;;;;28.74;31.35;92895.56;4904239;28;20080;-86
2021/05/13 09:47:37;;;;;;;21.90;18.13;;;;;;;28.21;33.45;92928.56;4911040;29;20039;-85
2021/05/13 09:50:11;;;;;;;18.95;15.35;;;;;;;28.43;32.35;92932.38;4914843;29;20042;-86
2021/05/13 09:52:40;;;;;;;16.67;13.70;;;;;;;28.43;31.62;92910.63;4910677;28;20048;-85
2021/05/13 09:55:21;;;;;;;17.85;14.50;;;;;;;28.59;30.62;92921.50;4912208;29;20044;-89
2021/05/13 09:57:50;;;;;;;13.98;12.35;;;;;;;28.43;31.01;92907.91;4906917;29;20160;-85
2021/05/13 10:00:36;;;;;;;20.13;14.55;;;;;;;28.06;31.48;92900.13;4862519;29;20171;-86
2021/05/13 10:03:05;;;;;;;16.70;11.95;;;;;;;28.50;31.31;92912.41;4891116;28;20043;-85
2021/05/13 10:05:34;;;;;;;16.38;12.80;;;;;;;27.90;30.52;92912.50;4908830;29;20114;-87
2021/05/13 10:08:00;;;;;;;14.70;12.75;;;;;;;26.78;32.21;92907.84;4911768;29;20064;-84
2021/05/13 10:10:26;;;;;;;16.42;12.20;;;;;;;26.88;31.94;92909.66;4909310;28;20500;-84
2021/05/13 10:12:55;;;;;;;17.50;12.30;;;;;;;26.98;32.30;92908.72;4907664;29;20166;-86
2021/05/13 10:15:21;;;;;;;17.23;11.50;;;;;;;26.97;33.00;92890.19;4894921;29;20078;-85
2021/05/13 10:17:48;;;;;;;16.02;11.93;;;;;;;27.26;32.30;92898.59;4909707;29;20127;-87
2021/05/13 10:20:20;;;;;;;17.35;10.43;;;;;;;27.19;32.18;92882.44;4912314;29;20040;-85
2021/05/13 10:22:47;;;;;;;14.60;11.00;;;;;;;27.29;32.21;92892.31;4907276;29;20395;-86
2021/05/13 10:25:21;;;;;;;13.13;8.63;;;;;;;27.26;31.52;92885.78;4912367;29;20086;-86
2021/05/13 10:27:55;;;;;;;11.20;7.53;;;;;;;27.17;30.23;92886.31;4913529;29;20083;-84
2021/05/13 10:30:22;;;;;;;6.60;4.90;;;;;;;27.23;29.89;92883.88;4910466;29;20048;-84
2021/05/13 10:33:18;;;;;;;9.35;4.85;;;;;;;27.32;29.63;92883.38;4913192;28;20501;-84
2021/05/13 10:36:17;;;;;;;12.57;9.85;;;;;;;26.95;31.96;92887.88;4893967;29;20532;-84
2021/05/13 10:38:49;;;;;;;15.60;11.48;;;;;;;25.79;34.58;92847.00;4903612;29;20982;-83
2021/05/13 10:41:30;;;;;;;17.27;11.82;;;;;;;25.45;36.78;92893.75;4911026;29;20039;-84
2021/05/13 10:43:57;;;;;;;13.45;10.88;;;;;;;25.08;35.14;92885.63;4928812;28;20226;-85
2021/05/13 10:46:30;;;;;;;17.05;11.57;;;;;;;24.99;35.64;92885.34;4906782;28;20067;-84
2021/05/13 10:49:18;;;;;;;17.48;9.93;;;;;;;25.28;33.58;92896.63;4926681;28;20043;-83
2021/05/13 10:51:47;;;;;;;16.00;10.23;;;;;;;25.37;34.98;92889.59;4922578;28;20043;-83
2021/05/13 10:54:28;;;;;;;15.45;9.75;;;;;;;25.54;32.90;92892.50;4891928;28;20098;-83
2021/05/13 10:57:10;;;;;;;11.80;10.27;;;;;;;25.36;34.14;92896.16;4915581;28;20404;-85
2021/05/13 10:59:36;;;;;;;12.60;9.50;;;;;;;25.60;34.29;92883.56;4925524;28;20492;-83
2021/05/13 11:02:01;;;;;;;16.38;10.52;;;;;;;24.78;35.06;92863.88;4931940;28;20077;-84
2021/05/13 11:04:29;;;;;;;11.65;9.85;;;;;;;24.90;35.58;92888.53;4908583;28;21035;-83
2021/05/13 11:06:56;;;;;;;13.82;9.90;;;;;;;24.92;35.45;92891.56;4853597;29;20075;-83
2021/05/13 11:09:40;;;;;;;17.50;9.82;;;;;;;25.19;35.28;92899.81;4912009;29;20051;-84
2021/05/13 11:12:12;;;;;;;13.82;9.63;;;;;;;25.72;33.45;92884.97;4883356;29;20691;-86
2021/05/13 11:20:30;;;;;;;14.10;9.73;;;;;;;26.22;34.78;92882.41;4937376;28;20382;-87
2021/05/13 11:22:58;;;;;;;14.82;10.82;;;;;;;26.28;34.58;92876.13;4920002;28;20077;-89
2021/05/13 11:25:28;;;;;;;10.93;8.65;;;;;;;26.04;33.91;92869.09;4928881;28;20629;-89
2021/05/13 11:27:53;;;;;;;12.35;9.88;;;;;;;25.97;34.19;92858.34;4934659;28;20515;-88
2021/05/13 11:30:27;;;;;;;14.85;9.52;;;;;;;25.95;34.65;92855.28;4934164;28;20043;-86
2021/05/13 11:32:54;;;;;;;12.00;9.18;;;;;;;26.23;34.42;92863.06;4932552;28;20039;-86
2021/05/13 11:35:20;;;;;;;7.88;5.18;;;;;;;26.73;31.17;92857.59;4929307;28;20070;-87
2021/05/13 11:37:50;;;;;;;2.97;1.10;;;;;;;26.95;25.88;92846.44;4938679;28;20089;-88
2021/05/13 11:40:25;;;;;;;2.80;1.48;;;;;;;27.10;24.83;92851.19;4920929;28;20050;-87
2021/05/13 11:42:51;;;;;;;2.83;1.55;;;;;;;27.30;25.18;92839.59;4934610;28;20062;-89
2021/05/13 11:45:22;;;;;;;2.95;1.40;;;;;;;27.27;25.81;92818.75;4935855;28;20504;-87
2021/05/13 11:47:49;;;;;;;2.15;1.30;;;;;;;27.34;26.19;92837.59;4923942;28;20137;-90
2021/05/13 11:50:43;;;;;;;3.50;1.15;;;;;;;27.07;24.96;92805.16;4933598;28;20038;-88
2021/05/13 11:53:14;;;;;;;3.08;1.25;;;;;;;26.85;24.46;92850.84;4886483;28;20062;-88
2021/05/13 11:55:41;;;;;;;3.78;1.20;;;;;;;26.66;25.77;92835.28;4936966;28;20039;-90
2021/05/13 11:58:08;;;;;;;1.98;1.17;;;;;;;26.69;27.25;92840.63;4930241;28;20048;-85
2021/05/13 12:00:33;;;;;;;1.90;1.17;;;;;;;26.59;25.84;92836.16;4921802;28;20043;-88
2021/05/13 12:03:13;;;;;;;1.30;1.05;;;;;;;26.37;25.67;92828.78;4932444;28;20098;-94
2021/05/13 12:06:10;;;;;;;1.30;1.20;;;;;;;26.15;27.00;92790.41;4927616;28;20043;-84
2021/05/13 12:08:38;;;;;;;1.83;1.00;;;;;;;26.24;26.98;92796.13;4911270;28;20059;-91
2021/05/13 12:11:20;;;;;;;4.03;1.52;;;;;;;26.62;27.67;92829.16;4915326;29;20416;-90
2021/05/13 12:13:46;;;;;;;1.80;1.10;;;;;;;26.66;28.68;92819.03;4936279;28;20090;-84
2021/05/13 12:16:12;;;;;;;2.55;1.42;;;;;;;26.53;28.03;92820.81;4931054;28;20732;-84
2021/05/13 12:18:40;;;;;;;4.38;1.08;;;;;;;26.38;29.02;92824.91;4939660;29;20039;-83
2021/05/13 12:21:07;;;;;;;3.88;1.48;;;;;;;26.32;28.85;92823.84;4937054;28;20555;-84
2021/05/13 12:23:33;;;;;;;3.30;1.50;;;;;;;26.20;28.12;92825.91;4938084;28;20023;-83
2021/05/13 12:25:58;;;;;;;3.50;1.50;;;;;;;26.34;28.50;92821.50;4940515;28;20523;-83
2021/05/13 12:28:24;;;;;;;2.15;1.25;;;;;;;26.43;28.97;92827.16;4940982;28;21123;-84
2021/05/13 12:30:53;;;;;;;4.15;1.45;;;;;;;26.40;28.65;92827.97;4942840;28;20150;-83
2021/05/13 12:33:28;;;;;;;2.90;1.95;;;;;;;26.38;28.98;92816.78;4938747;28;20208;-81
2021/05/13 12:35:54;;;;;;;7.97;2.70;;;;;;;26.55;29.98;92834.69;4916838;29;20423;-83
2021/05/13 12:38:22;;;;;;;8.30;4.68;;;;;;;25.58;31.08;92828.31;4940268;28;20034;-82
2021/05/13 12:41:04;;;;;;;6.13;3.88;;;;;;;24.74;31.44;92836.13;4944725;28;20034;-83
2021/05/13 12:43:30;;;;;;;7.07;3.30;;;;;;;24.86;30.47;92830.25;4939638;28;20039;-83
2021/05/13 12:45:55;;;;;;;8.25;2.95;;;;;;;24.63;32.17;92841.63;4940916;28;20035;-82
2021/05/13 12:48:25;;;;;;;7.07;2.10;;;;;;;24.29;29.55;92838.06;4924697;28;20043;-83
2021/05/13 12:51:01;;;;;;;4.18;2.00;;;;;;;24.53;30.07;92848.66;4940407;28;20515;-84
2021/05/13 12:53:28;;;;;;;3.13;1.83;;;;;;;24.47;30.02;92844.88;4942346;29;20027;-85
2021/05/13 12:55:55;;;;;;;3.08;2.10;;;;;;;24.39;29.11;92846.06;4942444;28;20579;-82
2021/05/13 12:58:23;;;;;;;2.08;1.40;;;;;;;24.60;29.38;92839.72;4942123;29;20133;-83
2021/05/13 13:00:57;;;;;;;3.15;1.85;;;;;;;24.81;30.14;92830.69;4923053;29;20047;-84
2021/05/13 13:03:39;;;;;;;4.70;1.48;;;;;;;25.01;28.97;92821.63;4919985;29;20039;-84
2021/05/13 13:06:06;;;;;;;3.22;1.02;;;;;;;25.04;27.43;92814.63;4937780;28;20050;-81
2021/05/13 13:08:49;;;;;;;3.85;1.85;;;;;;;25.13;28.07;92819.56;4940695;29;20035;-83
2021/05/13 13:11:34;;;;;;;4.45;1.40;;;;;;;25.41;28.24;92811.13;4942555;28;20058;-84
2021/05/13 13:14:05;;;;;;;2.40;1.20;;;;;;;25.39;28.57;92806.13;4920884;29;20499;-84
2021/05/13 13:16:35;;;;;;;1.58;1.10;;;;;;;25.32;27.53;92800.78;4941174;28;20424;-83
2021/05/13 13:19:04;;;;;;;1.40;1.00;;;;;;;25.42;27.59;92788.31;4923067;29;20039;-86
2021/05/13 13:21:30;;;;;;;3.58;1.13;;;;;;;25.67;28.14;92798.84;4939374;29;20042;-83
2021/05/13 13:23:55;;;;;;;3.35;1.10;;;;;;;25.64;28.10;92795.00;4938841;28;20401;-85
2021/05/13 13:26:29;;;;;;;4.55;1.50;;;;;;;25.59;28.64;92792.00;4923138;29;20027;-83
2021/05/13 13:28:55;;;;;;;4.63;1.07;;;;;;;25.67;28.70;92790.72;4942940;28;20573;-85
2021/05/13 13:31:23;;;;;;;2.72;1.30;;;;;;;25.67;28.68;92793.41;4939183;29;20038;-84
2021/05/13 13:33:56;;;;;;;4.10;1.45;;;;;;;25.79;28.02;92803.69;4940140;28;20039;-84
2021/05/13 13:36:22;;;;;;;6.78;1.83;;;;;;;25.85;28.65;92793.97;4918761;29;20043;-84
2021/05/13 13:38:48;;;;;;;4.93;1.20;;;;;;;25.90;30.69;92790.03;4943013;29;20432;-84
2021/05/13 13:41:14;;;;;;;2.88;1.23;;;;;;;25.88;28.59;92798.53;4940333;28;20030;-85
2021/05/13 13:43:40;;;;;;;3.67;1.20;;;;;;;25.92;26.99;92799.25;4923942;29;20039;-83
2021/05/13 13:46:05;;;;;;;5.65;1.42;;;;;;;25.89;29.90;92805.50;4938344;28;20155;-83
2021/05/13 13:48:30;;;;;;;3.80;1.95;;;;;;;25.85;29.95;92799.38;4941011;29;20051;-87
2021/05/13 13:50:58;;;;;;;2.45;1.40;;;;;;;25.55;30.53;92799.41;4940906;28;20757;-90
2021/05/13 13:53:28;;;;;;;4.95;1.50;;;;;;;25.46;30.93;92789.03;4938716;28;20034;-83
2021/05/13 13:55:55;;;;;;;2.78;1.27;;;;;;;25.35;31.12;92794.59;4943518;28;20021;-85
2021/05/13 13:58:21;;;;;;;2.08;1.30;;;;;;;25.34;31.23;92793.03;4939018;28;20505;-83
2021/05/13 14:00:48;;;;;;;7.55;1.20;;;;;;;25.30;31.62;92805.84;4941435;29;20035;-83
2021/05/13 14:03:14;;;;;;;3.60;1.10;;;;;;;25.32;31.75;92811.59;4938330;28;20154;-83
2021/05/13 14:05:39;;;;;;;6.07;1.40;;;;;;;25.35;32.33;92815.44;4923232;29;20496;-87
2021/05/13 14:08:05;;;;;;;4.25;1.55;;;;;;;25.24;30.87;92823.69;4940920;28;20035;-84
2021/05/13 14:10:30;;;;;;;4.40;1.42;;;;;;;25.01;31.75;92829.72;4939815;29;20652;-83